Time;durP1;ratioP1;P1;durP2;ratioP2;P2;SDS_P1;SDS_P2;PMS_P1;PMS_P2;Temp;Humidity;BMP_temperature;BMP_pressure;BME280_temperature;BME280_humidity;BME280_pressure;Samples;Min_cycle;Max_cycle;Signal;HPM_P1;HPM_P2
2022/04/20 00:02:07;;;;;;;3.27;2.30;;;;;;;;;;5012631;28;20245;-78
2022/04/20 00:04:33;;;;;;;2.80;2.10;;;;;;;;;;5012915;28;20168;-78
2022/04/20 00:06:59;;;;;;;3.77;2.30;;;;;;;;;;4994862;28;20234;-78
2022/04/20 00:09:26;;;;;;;5.00;2.30;;;;;;;;;;5011872;28;20192;-78
2022/04/20 00:11:52;;;;;;;3.73;2.60;;;;;;;;;;5018497;28;115704;-77
2022/04/20 00:14:18;;;;;;;3.73;2.43;;;;;;;;;;5012045;28;20198;-77
2022/04/20 00:16:44;;;;;;;5.57;2.50;;;;;;;;;;5007446;28;20216;-78
2022/04/20 00:19:11;;;;;;;4.50;2.60;;;;;;;;;;5011823;28;20195;-77
2022/04/20 00:21:37;;;;;;;2.90;2.30;;;;;;;;;;5021501;28;20175;-77
2022/04/20 00:24:03;;;;;;;3.50;2.63;;;;;;;;;;5012853;28;20183;-78
2022/04/20 00:26:29;;;;;;;4.27;2.50;;;;;;;;;;5011115;28;20569;-77
2022/04/20 00:28:56;;;;;;;5.73;2.60;;;;;;;;;;5011891;28;20195;-78
2022/04/20 00:31:22;;;;;;;2.93;2.30;;;;;;;;;;4995975;28;20270;-78
2022/04/20 00:33:48;;;;;;;3.70;2.27;;;;;;;;;;5011415;28;20179;-78
2022/04/20 00:36:14;;;;;;;2.83;2.20;;;;;;;;;;5012573;28;20199;-78
2022/04/20 00:38:40;;;;;;;4.50;2.23;;;;;;;;;;5011369;28;20215;-78
2022/04/20 00:41:09;;;;;;;4.20;2.50;;;;;;;;;;5011818;28;20211;-78
2022/04/20 00:43:35;;;;;;;3.67;2.50;;;;;;;;;;5013356;28;20186;-78
2022/04/20 00:46:03;;;;;;;3.63;2.43;;;;;;;;;;5006607;28;20710;-78
2022/04/20 00:48:30;;;;;;;3.13;2.60;;;;;;;;;;5003904;28;20241;-78
2022/04/20 00:50:57;;;;;;;2.83;2.33;;;;;;;;;;5009211;28;20187;-78
2022/04/20 00:53:24;;;;;;;3.47;2.30;;;;;;;;;;5013023;28;20187;-78
2022/04/20 00:55:52;;;;;;;4.70;2.27;;;;;;;;;;5007255;28;20191;-78
2022/04/20 00:58:19;;;;;;;4.30;2.67;;;;;;;;;;5010577;28;20804;-78
2022/04/20 01:00:45;;;;;;;4.63;2.50;;;;;;;;;;5009084;28;20183;-78
2022/04/20 01:03:12;;;;;;;3.17;2.50;;;;;;;;;;5011736;28;20179;-78
2022/04/20 01:06:01;;;;;;;3.27;2.33;;;;;;;;;;5009686;28;20195;-78
2022/04/20 01:09:00;;;;;;;3.20;2.43;;;;;;;;;;5010765;28;20187;-77
2022/04/20 01:11:56;;;;;;;5.03;2.70;;;;;;;;;;4989377;28;20222;-78
2022/04/20 01:14:34;;;;;;;2.87;2.57;;;;;;;;;;5000733;28;20236;-78
2022/04/20 01:17:36;;;;;;;4.03;2.60;;;;;;;;;;4997598;28;20229;-77
2022/04/20 01:20:22;;;;;;;3.00;2.43;;;;;;;;;;4989435;28;20219;-78
2022/04/20 01:23:11;;;;;;;3.73;2.47;;;;;;;;;;5018240;28;20564;-77
2022/04/20 01:25:47;;;;;;;3.37;2.43;;;;;;;;;;5011254;28;20187;-77
2022/04/20 01:28:35;;;;;;;3.40;2.37;;;;;;;;;;4992805;28;20191;-78
2022/04/20 01:31:15;;;;;;;3.93;2.50;;;;;;;;;;5010149;28;20187;-78
2022/04/20 01:33:49;;;;;;;4.97;2.50;;;;;;;;;;5007302;28;20309;-78
2022/04/20 01:36:15;;;;;;;4.30;2.30;;;;;;;;;;5010990;28;20280;-78
2022/04/20 01:38:41;;;;;;;4.07;2.20;;;;;;;;;;4992880;28;20226;-78
2022/04/20 01:41:07;;;;;;;2.53;2.10;;;;;;;;;;5010189;28;20183;-78
2022/04/20 01:43:34;;;;;;;4.30;2.30;;;;;;;;;;5009561;28;20179;-77
2022/04/20 01:46:17;;;;;;;2.70;2.17;;;;;;;;;;5008394;28;20257;-78
2022/04/20 01:49:12;;;;;;;3.33;2.57;;;;;;;;;;4997196;28;20211;-78
2022/04/20 01:51:47;;;;;;;3.03;2.30;;;;;;;;;;5008302;28;20183;-78
2022/04/20 01:54:24;;;;;;;3.67;2.60;;;;;;;;;;5004321;28;20208;-77
2022/04/20 01:56:55;;;;;;;3.50;2.40;;;;;;;;;;5009691;28;20223;-77
2022/04/20 01:59:39;;;;;;;2.60;2.20;;;;;;;;;;5010795;28;20179;-77
2022/04/20 02:05:09;;;;;;;2.63;2.40;;;;;;;;;;5009475;28;20179;-77
2022/04/20 02:07:37;;;;;;;5.27;2.70;;;;;;;;;;5007986;28;20215;-79
2022/04/20 02:10:06;;;;;;;3.07;2.40;;;;;;;;;;5025923;28;20196;-77
2022/04/20 02:12:33;;;;;;;3.10;2.43;;;;;;;;;;5013919;28;20198;-78
2022/04/20 02:15:17;;;;;;;2.77;2.40;;;;;;;;;;5005946;28;20175;-77
2022/04/20 02:18:02;;;;;;;2.67;2.17;;;;;;;;;;5010711;28;20246;-77
2022/04/20 02:20:42;;;;;;;3.40;2.43;;;;;;;;;;5007036;28;20187;-77
2022/04/20 02:23:09;;;;;;;3.47;2.30;;;;;;;;;;5009417;28;20543;-78
2022/04/20 02:25:35;;;;;;;3.70;2.30;;;;;;;;;;5011427;28;20206;-77
2022/04/20 02:28:01;;;;;;;4.03;2.27;;;;;;;;;;5009523;28;20211;-78
2022/04/20 02:30:27;;;;;;;3.70;2.67;;;;;;;;;;5010050;28;20183;-77
2022/04/20 02:32:55;;;;;;;2.40;2.20;;;;;;;;;;5023983;28;20190;-78
2022/04/20 02:35:21;;;;;;;2.93;2.27;;;;;;;;;;5008889;28;20179;-78
2022/04/20 02:37:47;;;;;;;3.63;2.20;;;;;;;;;;5004521;28;20722;-77
2022/04/20 02:40:16;;;;;;;3.70;2.40;;;;;;;;;;5006260;28;20175;-77
2022/04/20 02:42:43;;;;;;;2.93;2.40;;;;;;;;;;5006887;28;20211;-77
2022/04/20 02:45:09;;;;;;;4.43;2.80;;;;;;;;;;5006529;28;20260;-77
2022/04/20 02:47:36;;;;;;;3.10;2.57;;;;;;;;;;5003696;28;20732;-78
2022/04/20 02:50:02;;;;;;;3.90;2.47;;;;;;;;;;5007480;28;20262;-78
2022/04/20 02:52:28;;;;;;;3.43;2.80;;;;;;;;;;5008246;28;20190;-77
2022/04/20 02:54:55;;;;;;;3.40;2.80;;;;;;;;;;4994169;28;20266;-77
2022/04/20 02:57:22;;;;;;;3.30;3.00;;;;;;;;;;5009802;28;20702;-79
2022/04/20 02:59:51;;;;;;;3.83;2.83;;;;;;;;;;5009783;28;20225;-77
2022/04/20 03:02:18;;;;;;;3.87;2.67;;;;;;;;;;5010222;28;20255;-77
2022/04/20 03:04:45;;;;;;;5.10;3.23;;;;;;;;;;4991392;28;20571;-78
2022/04/20 03:07:11;;;;;;;3.20;2.90;;;;;;;;;;5001932;28;20221;-77
2022/04/20 03:09:51;;;;;;;5.03;2.80;;;;;;;;;;5009446;28;20249;-77
2022/04/20 03:12:18;;;;;;;4.53;2.80;;;;;;;;;;5008056;28;20191;-79
2022/04/20 03:14:54;;;;;;;4.37;3.17;;;;;;;;;;5023047;28;20579;-77
2022/04/20 03:17:24;;;;;;;5.00;2.57;;;;;;;;;;5008830;28;20207;-77
2022/04/20 03:19:51;;;;;;;3.63;2.97;;;;;;;;;;5021805;28;20651;-78
2022/04/20 03:22:18;;;;;;;5.57;3.03;;;;;;;;;;5003181;28;20237;-77
2022/04/20 03:24:45;;;;;;;6.83;3.40;;;;;;;;;;5007238;28;20718;-77
2022/04/20 03:27:21;;;;;;;4.63;2.97;;;;;;;;;;4985295;28;20302;-78
2022/04/20 03:29:56;;;;;;;4.13;2.80;;;;;;;;;;5008703;28;20220;-77
2022/04/20 03:32:22;;;;;;;3.77;3.03;;;;;;;;;;5007840;28;20192;-77
2022/04/20 03:34:48;;;;;;;5.53;3.00;;;;;;;;;;5008750;28;20194;-78
2022/04/20 03:37:14;;;;;;;3.87;3.00;;;;;;;;;;5003490;28;20689;-77
2022/04/20 03:39:41;;;;;;;3.57;2.90;;;;;;;;;;5008838;28;20853;-77
2022/04/20 03:42:08;;;;;;;4.80;3.17;;;;;;;;;;5008788;28;20184;-79
2022/04/20 03:44:36;;;;;;;3.90;2.97;;;;;;;;;;5003028;28;20183;-77
2022/04/20 03:47:03;;;;;;;3.70;2.97;;;;;;;;;;5008013;28;20203;-77
2022/04/20 03:49:30;;;;;;;4.37;2.90;;;;;;;;;;5006275;28;20266;-77
2022/04/20 03:51:56;;;;;;;4.67;3.33;;;;;;;;;;5009735;28;20191;-78
2022/04/20 03:54:28;;;;;;;4.83;3.17;;;;;;;;;;5010190;28;20188;-77
2022/04/20 03:57:03;;;;;;;8.13;2.90;;;;;;;;;;5012229;28;20211;-77
2022/04/20 03:59:33;;;;;;;4.47;3.50;;;;;;;;;;5012374;28;20192;-77
2022/04/20 04:02:00;;;;;;;5.00;3.13;;;;;;;;;;5011103;28;20229;-77
2022/04/20 04:04:28;;;;;;;3.57;3.10;;;;;;;;;;5012831;28;20175;-78
2022/04/20 04:06:57;;;;;;;3.87;3.20;;;;;;;;;;5011422;28;20225;-77
2022/04/20 04:09:24;;;;;;;4.70;3.30;;;;;;;;;;5012115;28;20250;-77
2022/04/20 04:11:53;;;;;;;6.10;3.10;;;;;;;;;;5011508;28;20618;-77
2022/04/20 04:14:21;;;;;;;3.70;3.20;;;;;;;;;;4997010;28;20223;-78
2022/04/20 04:16:49;;;;;;;3.43;3.10;;;;;;;;;;5004740;28;20764;-77
2022/04/20 04:19:15;;;;;;;4.07;3.27;;;;;;;;;;5012264;28;20682;-77
2022/04/20 04:21:48;;;;;;;3.70;3.23;;;;;;;;;;5007911;28;20550;-77
2022/04/20 04:24:36;;;;;;;4.07;3.10;;;;;;;;;;5005645;28;20184;-77
2022/04/20 04:27:05;;;;;;;5.20;3.30;;;;;;;;;;5010832;28;20222;-77
2022/04/20 04:29:32;;;;;;;4.20;3.17;;;;;;;;;;5011576;28;20171;-77
2022/04/20 04:31:59;;;;;;;4.70;3.20;;;;;;;;;;5011960;28;20184;-77
2022/04/20 04:34:26;;;;;;;5.83;3.27;;;;;;;;;;4994242;28;20187;-78
2022/04/20 04:36:54;;;;;;;4.40;3.10;;;;;;;;;;5003818;28;20214;-77
2022/04/20 04:39:21;;;;;;;4.67;3.00;;;;;;;;;;5007961;28;20199;-77
2022/04/20 04:41:49;;;;;;;4.87;3.23;;;;;;;;;;5023945;28;20191;-77
2022/04/20 04:44:17;;;;;;;4.50;3.57;;;;;;;;;;5012636;28;20258;-77
2022/04/20 04:49:32;;;;;;;5.93;3.67;;;;;;;;;;5009987;28;20218;-77
2022/04/20 04:52:00;;;;;;;5.00;3.40;;;;;;;;;;5010364;28;20191;-77
2022/04/20 04:54:27;;;;;;;4.10;3.47;;;;;;;;;;5006802;28;20187;-77
2022/04/20 04:56:55;;;;;;;4.70;3.13;;;;;;;;;;5011381;28;20255;-76
2022/04/20 04:59:21;;;;;;;4.07;2.97;;;;;;;;;;5010732;28;20282;-78
2022/04/20 05:01:51;;;;;;;3.97;3.20;;;;;;;;;;5007049;28;20987;-77
2022/04/20 05:04:19;;;;;;;3.77;3.07;;;;;;;;;;4979770;28;20199;-79
2022/04/20 05:06:47;;;;;;;4.63;3.17;;;;;;;;;;5014631;28;20206;-80
2022/04/20 05:09:32;;;;;;;6.20;3.30;;;;;;;;;;5014200;28;20206;-77
2022/04/20 05:11:58;;;;;;;4.10;2.90;;;;;;;;;;5011149;28;20191;-78
2022/04/20 05:14:25;;;;;;;3.43;2.80;;;;;;;;;;5026674;28;20179;-78
2022/04/20 05:16:55;;;;;;;5.93;2.97;;;;;;;;;;4991016;28;20295;-78
2022/04/20 05:19:22;;;;;;;3.87;3.00;;;;;;;;;;5010459;28;20282;-78
2022/04/20 05:21:52;;;;;;;3.93;2.97;;;;;;;;;;5006100;28;20184;-78
2022/04/20 05:24:25;;;;;;;4.50;3.23;;;;;;;;;;5010198;28;20206;-79
2022/04/20 05:26:52;;;;;;;3.83;3.10;;;;;;;;;;5009467;28;20203;-78
2022/04/20 05:29:19;;;;;;;5.63;3.30;;;;;;;;;;5009971;28;20290;-78
2022/04/20 05:32:02;;;;;;;3.40;3.10;;;;;;;;;;5010393;28;20191;-80
2022/04/20 05:34:30;;;;;;;3.80;3.10;;;;;;;;;;4995667;28;20187;-77
2022/04/20 05:42:28;;;;;;;5.70;3.03;;;;;;;;;;5011156;28;20634;-78
2022/04/20 05:44:55;;;;;;;4.07;3.00;;;;;;;;;;5010016;28;20271;-79
2022/04/20 05:47:21;;;;;;;4.07;3.10;;;;;;;;;;5006302;28;20699;-78
2022/04/20 05:49:48;;;;;;;5.93;3.37;;;;;;;;;;4995065;28;20205;-77
2022/04/20 05:52:14;;;;;;;6.10;2.87;;;;;;;;;;4995222;28;20198;-78
2022/04/20 05:54:42;;;;;;;5.00;3.40;;;;;;;;;;5010650;28;20187;-78
2022/04/20 05:57:08;;;;;;;4.27;3.10;;;;;;;;;;5011178;28;20210;-77
2022/04/20 05:59:37;;;;;;;3.90;2.90;;;;;;;;;;4973358;28;20227;-79
2022/04/20 06:02:04;;;;;;;4.33;3.20;;;;;;;;;;5022854;28;20627;-78
2022/04/20 06:04:30;;;;;;;3.77;3.13;;;;;;;;;;5011760;28;20207;-78
2022/04/20 06:07:02;;;;;;;7.27;3.20;;;;;;;;;;5012111;28;20242;-78
2022/04/20 06:09:33;;;;;;;4.23;3.20;;;;;;;;;;5010900;28;20658;-78
2022/04/20 06:12:11;;;;;;;4.43;3.00;;;;;;;;;;5010082;28;20202;-78
2022/04/20 06:14:55;;;;;;;4.50;3.07;;;;;;;;;;5010700;28;20222;-79
2022/04/20 06:17:37;;;;;;;6.00;2.80;;;;;;;;;;5010770;28;20222;-78
2022/04/20 06:20:05;;;;;;;5.20;3.23;;;;;;;;;;5011284;28;20255;-79
2022/04/20 06:22:36;;;;;;;3.50;3.07;;;;;;;;;;4992500;28;20218;-78
2022/04/20 06:25:20;;;;;;;4.77;3.20;;;;;;;;;;4993162;28;20525;-79
2022/04/20 06:28:15;;;;;;;4.37;2.93;;;;;;;;;;5009728;28;20214;-78
2022/04/20 06:31:01;;;;;;;6.13;3.47;;;;;;;;;;5004449;28;20261;-78
2022/04/20 06:33:57;;;;;;;6.33;3.50;;;;;;;;;;5010215;28;20647;-79
2022/04/20 06:36:42;;;;;;;6.57;3.27;;;;;;;;;;5009655;28;20202;-78
2022/04/20 06:39:44;;;;;;;5.73;3.30;;;;;;;;;;4950843;28;20198;-79
2022/04/20 06:42:20;;;;;;;4.50;3.30;;;;;;;;;;4982735;28;20202;-80
2022/04/20 06:44:52;;;;;;;7.57;3.00;;;;;;;;;;5009655;28;20259;-82
2022/04/20 06:47:41;;;;;;;3.87;3.20;;;;;;;;;;5009570;28;20686;-78
2022/04/20 06:50:18;;;;;;;5.20;2.77;;;;;;;;;;4994567;28;20183;-81
2022/04/20 06:58:36;;;;;;;4.97;3.20;;;;;;;;;;5009295;28;20245;-79
2022/04/20 07:01:08;;;;;;;4.57;3.07;;;;;;;;;;5009222;28;20187;-78
2022/04/20 07:03:37;;;;;;;4.67;3.20;;;;;;;;;;5014101;28;20191;-82
2022/04/20 07:06:27;;;;;;;3.33;3.03;;;;;;;;;;5013806;28;20207;-78
2022/04/20 07:09:12;;;;;;;3.80;2.57;;;;;;;;;;5012738;28;20175;-79
2022/04/20 07:11:45;;;;;;;4.13;3.20;;;;;;;;;;5027746;28;20747;-81
2022/04/20 07:14:12;;;;;;;3.70;2.93;;;;;;;;;;4994715;28;20646;-79
2022/04/20 07:16:38;;;;;;;6.07;2.87;;;;;;;;;;5010628;28;20213;-79
2022/04/20 07:19:18;;;;;;;4.93;3.10;;;;;;;;;;5010158;28;20191;-80
2022/04/20 07:22:02;;;;;;;4.03;3.17;;;;;;;;;;5011332;28;20194;-79
2022/04/20 07:24:39;;;;;;;5.07;3.20;;;;;;;;;;4978652;28;20292;-79
2022/04/20 07:27:06;;;;;;;5.47;3.30;;;;;;;;;;5013517;28;20698;-79
2022/04/20 07:29:57;;;;;;;4.63;3.43;;;;;;;;;;4998201;28;20270;-79
2022/04/20 07:32:40;;;;;;;3.60;3.00;;;;;;;;;;4996278;28;20737;-79
2022/04/20 07:35:55;;;;;;;3.70;3.20;;;;;;;;;;5003697;28;20218;-80
2022/04/20 07:38:34;;;;;;;6.23;3.43;;;;;;;;;;4993857;28;20200;-82
2022/04/20 07:41:18;;;;;;;4.53;3.20;;;;;;;;;;5005261;28;20270;-79
2022/04/20 07:44:00;;;;;;;4.73;3.00;;;;;;;;;;5010569;28;20179;-79
2022/04/20 07:46:46;;;;;;;8.43;3.20;;;;;;;;;;5007115;28;20207;-82
2022/04/20 07:52:23;;;;;;;3.93;3.00;;;;;;;;;;5019149;28;20278;-79
2022/04/20 07:55:01;;;;;;;3.73;2.70;;;;;;;;;;5000291;28;20190;-79
2022/04/20 07:57:37;;;;;;;4.33;2.93;;;;;;;;;;5013401;28;20271;-81
2022/04/20 08:00:13;;;;;;;4.03;2.77;;;;;;;;;;4998916;28;20640;-79
2022/04/20 08:02:44;;;;;;;3.33;2.70;;;;;;;;;;5012197;28;20186;-79
2022/04/20 08:05:25;;;;;;;3.53;2.93;;;;;;;;;;5012122;28;20206;-79
2022/04/20 08:07:51;;;;;;;4.13;2.73;;;;;;;;;;5013515;28;20222;-81
2022/04/20 08:10:18;;;;;;;3.50;3.00;;;;;;;;;;4996692;28;20183;-80
2022/04/20 08:12:45;;;;;;;4.20;2.60;;;;;;;;;;4997066;28;20206;-79
2022/04/20 08:15:22;;;;;;;2.70;2.40;;;;;;;;;;4998668;28;20262;-78
2022/04/20 08:17:50;;;;;;;3.83;2.70;;;;;;;;;;5013111;28;20639;-78
2022/04/20 08:20:35;;;;;;;4.20;2.77;;;;;;;;;;5014633;28;20549;-83
2022/04/20 08:23:02;;;;;;;3.43;2.87;;;;;;;;;;4999822;28;20186;-80
2022/04/20 08:25:28;;;;;;;3.23;2.30;;;;;;;;;;5015136;28;20179;-81
2022/04/20 08:27:54;;;;;;;4.03;2.97;;;;;;;;;;5002378;28;20207;-82
2022/04/20 08:30:20;;;;;;;3.70;2.83;;;;;;;;;;5015265;28;20187;-77
2022/04/20 08:32:47;;;;;;;3.10;2.53;;;;;;;;;;4986467;28;20190;-81
2022/04/20 08:35:13;;;;;;;3.70;3.00;;;;;;;;;;5019531;28;20183;-82
2022/04/20 08:37:39;;;;;;;3.40;2.60;;;;;;;;;;4999571;28;20809;-79
2022/04/20 08:40:06;;;;;;;3.43;2.50;;;;;;;;;;4999775;28;20249;-82
2022/04/20 08:42:34;;;;;;;4.57;3.00;;;;;;;;;;5016488;28;20187;-79
2022/04/20 08:45:02;;;;;;;6.00;2.97;;;;;;;;;;5017276;28;20179;-86
2022/04/20 08:47:32;;;;;;;3.93;2.97;;;;;;;;;;4985607;28;20203;-84
2022/04/20 08:49:58;;;;;;;2.70;2.50;;;;;;;;;;5016203;28;20175;-80
2022/04/20 08:52:37;;;;;;;3.00;2.70;;;;;;;;;;5031568;28;20678;-80
2022/04/20 08:55:07;;;;;;;3.17;2.70;;;;;;;;;;5013309;28;20219;-79
2022/04/20 08:57:36;;;;;;;3.57;2.80;;;;;;;;;;5013183;28;20305;-82
2022/04/20 09:00:04;;;;;;;2.90;2.60;;;;;;;;;;5017593;28;20187;-82
2022/04/20 09:02:31;;;;;;;3.00;2.70;;;;;;;;;;5000214;28;20168;-81
2022/04/20 09:04:57;;;;;;;3.23;2.70;;;;;;;;;;5015274;28;20195;-81
2022/04/20 09:07:25;;;;;;;2.80;2.60;;;;;;;;;;4996901;28;20248;-80
2022/04/20 09:09:51;;;;;;;3.87;2.33;;;;;;;;;;5018735;28;20701;-78
2022/04/20 09:12:19;;;;;;;3.10;2.77;;;;;;;;;;5019213;28;20202;-81
2022/04/20 09:14:50;;;;;;;3.23;2.70;;;;;;;;;;5017095;28;20532;-84
2022/04/20 09:17:20;;;;;;;3.30;2.50;;;;;;;;;;5000026;28;20211;-82
2022/04/20 09:19:48;;;;;;;2.83;2.50;;;;;;;;;;4984943;28;20278;-82
2022/04/20 09:22:19;;;;;;;6.77;2.63;;;;;;;;;;5018444;28;20186;-83
2022/04/20 09:24:57;;;;;;;4.00;2.60;;;;;;;;;;5018385;28;20497;-83
2022/04/20 09:27:24;;;;;;;3.33;2.60;;;;;;;;;;4999978;28;20229;-82
2022/04/20 09:29:57;;;;;;;3.20;2.60;;;;;;;;;;5001825;28;20194;-82
2022/04/20 09:32:56;;;;;;;3.60;2.80;;;;;;;;;;5003248;28;20191;-82
2022/04/20 09:35:22;;;;;;;3.47;2.77;;;;;;;;;;4994185;28;20219;-83
2022/04/20 09:38:05;;;;;;;3.33;2.90;;;;;;;;;;4984595;28;20223;-82
2022/04/20 09:40:49;;;;;;;3.17;2.53;;;;;;;;;;5003584;28;20186;-78
2022/04/20 09:43:16;;;;;;;4.63;3.20;;;;;;;;;;5018625;28;20175;-79
2022/04/20 09:45:43;;;;;;;3.03;2.73;;;;;;;;;;5016127;28;20194;-81
2022/04/20 09:51:09;;;;;;;3.50;2.63;;;;;;;;;;5018637;28;20194;-79
2022/04/20 09:53:55;;;;;;;3.10;2.80;;;;;;;;;;5025017;28;22192;-81
2022/04/20 09:56:27;;;;;;;3.40;2.77;;;;;;;;;;5006649;28;20321;-80
2022/04/20 09:58:59;;;;;;;4.70;2.80;;;;;;;;;;5006813;28;20229;-80
2022/04/20 10:01:25;;;;;;;8.30;3.20;;;;;;;;;;5040854;28;20187;-80
2022/04/20 10:03:55;;;;;;;4.40;2.87;;;;;;;;;;5024276;28;20187;-81
2022/04/20 10:06:21;;;;;;;4.40;2.87;;;;;;;;;;5021429;28;20207;-80
2022/04/20 10:08:48;;;;;;;3.77;2.83;;;;;;;;;;5016064;28;20278;-80
2022/04/20 10:11:15;;;;;;;3.37;2.83;;;;;;;;;;5016832;28;20206;-80
2022/04/20 10:13:41;;;;;;;3.53;2.80;;;;;;;;;;5019525;28;20179;-80
2022/04/20 10:16:12;;;;;;;3.07;2.70;;;;;;;;;;4986561;28;20625;-80
2022/04/20 10:18:41;;;;;;;3.37;3.07;;;;;;;;;;5017719;28;20212;-81
2022/04/20 10:21:12;;;;;;;3.40;2.90;;;;;;;;;;5023656;28;20218;-80
2022/04/20 10:23:42;;;;;;;4.93;3.00;;;;;;;;;;5018692;28;20179;-82
2022/04/20 10:26:09;;;;;;;3.27;2.80;;;;;;;;;;5018234;28;20562;-81
2022/04/20 10:28:40;;;;;;;2.77;2.50;;;;;;;;;;5014926;28;20729;-81
2022/04/20 10:31:13;;;;;;;4.63;3.10;;;;;;;;;;5017374;28;20569;-81
2022/04/20 10:33:41;;;;;;;3.17;2.70;;;;;;;;;;5022786;28;20199;-81
2022/04/20 10:36:33;;;;;;;4.13;2.90;;;;;;;;;;5002004;28;20686;-81
2022/04/20 10:39:18;;;;;;;2.87;2.50;;;;;;;;;;5002804;28;20870;-82
2022/04/20 10:42:07;;;;;;;2.70;2.50;;;;;;;;;;5013868;28;20191;-79
2022/04/20 10:44:52;;;;;;;4.27;2.77;;;;;;;;;;5009696;28;20218;-79
2022/04/20 10:47:20;;;;;;;2.90;2.60;;;;;;;;;;5012542;28;20706;-86
2022/04/20 10:49:46;;;;;;;4.87;3.27;;;;;;;;;;5011899;28;20183;-86
2022/04/20 10:52:25;;;;;;;5.00;3.30;;;;;;;;;;5027190;28;20183;-81
2022/04/20 10:54:53;;;;;;;3.20;2.90;;;;;;;;;;5012482;28;20213;-82
2022/04/20 10:57:32;;;;;;;3.40;2.80;;;;;;;;;;4997844;28;20706;-84
2022/04/20 11:00:19;;;;;;;4.00;2.80;;;;;;;;;;5015478;28;20221;-82
2022/04/20 11:02:55;;;;;;;3.40;3.00;;;;;;;;;;5009387;28;20187;-78
2022/04/20 11:05:22;;;;;;;3.93;2.87;;;;;;;;;;4997395;28;20182;-79
2022/04/20 11:08:12;;;;;;;4.10;3.10;;;;;;;;;;5013822;28;20250;-81
2022/04/20 11:19:33;;;;;;;4.00;2.80;;;;;;;;;;5012169;28;20565;-79
2022/04/20 11:22:09;;;;;;;5.47;3.10;;;;;;;;;;5014162;28;20190;-83
2022/04/20 11:24:36;;;;;;;3.10;2.80;;;;;;;;;;5015205;28;20282;-79
2022/04/20 11:27:02;;;;;;;3.53;2.80;;;;;;;;;;4999276;28;20217;-78
2022/04/20 11:29:30;;;;;;;4.20;3.27;;;;;;;;;;5001159;28;20195;-84
2022/04/20 11:32:04;;;;;;;3.90;3.03;;;;;;;;;;5017236;28;20205;-83
2022/04/20 11:34:43;;;;;;;3.53;2.90;;;;;;;;;;5018534;28;20233;-83
2022/04/20 11:37:10;;;;;;;3.40;3.07;;;;;;;;;;5022210;28;20211;-82
2022/04/20 11:39:36;;;;;;;10.47;3.10;;;;;;;;;;4997313;28;20223;-79
2022/04/20 11:42:03;;;;;;;4.23;3.60;;;;;;;;;;5012435;28;20192;-82
2022/04/20 11:44:36;;;;;;;3.83;3.40;;;;;;;;;;5013824;28;20261;-79
2022/04/20 11:47:09;;;;;;;4.13;2.90;;;;;;;;;;4991818;28;20219;-78
2022/04/20 11:49:42;;;;;;;4.80;3.30;;;;;;;;;;5006246;28;20172;-79
2022/04/20 11:52:11;;;;;;;4.90;3.27;;;;;;;;;;5014033;28;20190;-79
2022/04/20 11:54:40;;;;;;;4.60;2.77;;;;;;;;;;5013067;28;20183;-79
2022/04/20 11:57:18;;;;;;;4.23;2.83;;;;;;;;;;5012431;28;20222;-79
2022/04/20 12:00:11;;;;;;;3.20;2.90;;;;;;;;;;5001491;28;20274;-79
2022/04/20 12:02:41;;;;;;;3.07;2.77;;;;;;;;;;5010720;28;20184;-80
2022/04/20 12:05:15;;;;;;;3.63;3.00;;;;;;;;;;5007616;28;20175;-79
2022/04/20 12:07:41;;;;;;;5.70;2.77;;;;;;;;;;5010706;28;20282;-79
2022/04/20 12:10:08;;;;;;;4.40;3.10;;;;;;;;;;5030053;28;20199;-79
2022/04/20 12:12:34;;;;;;;3.13;2.70;;;;;;;;;;5012922;28;20230;-80
2022/04/20 12:15:08;;;;;;;4.33;3.10;;;;;;;;;;5012068;28;20210;-79
2022/04/20 12:17:34;;;;;;;4.33;3.00;;;;;;;;;;5011353;28;20653;-79
2022/04/20 12:20:01;;;;;;;3.10;2.80;;;;;;;;;;5026123;28;20188;-79
2022/04/20 12:22:27;;;;;;;3.30;2.70;;;;;;;;;;5012384;28;20211;-82
2022/04/20 12:25:14;;;;;;;3.10;2.80;;;;;;;;;;5015342;28;20218;-81
2022/04/20 12:27:51;;;;;;;5.03;2.83;;;;;;;;;;5017664;28;20211;-82
2022/04/20 12:30:34;;;;;;;3.20;2.90;;;;;;;;;;5032601;28;20325;-83
2022/04/20 12:33:04;;;;;;;3.47;2.97;;;;;;;;;;4999314;28;20195;-83
2022/04/20 12:35:31;;;;;;;4.97;3.20;;;;;;;;;;5030055;28;20184;-84
2022/04/20 12:38:02;;;;;;;2.97;2.70;;;;;;;;;;5001963;28;20227;-84
2022/04/20 12:40:33;;;;;;;4.87;2.87;;;;;;;;;;5004013;28;20189;-84
2022/04/20 12:43:02;;;;;;;3.00;2.73;;;;;;;;;;5018985;28;20283;-82
2022/04/20 12:45:30;;;;;;;2.80;2.60;;;;;;;;;;5004899;28;20187;-80
2022/04/20 12:48:03;;;;;;;3.43;2.87;;;;;;;;;;5013361;28;20273;-77
2022/04/20 12:50:34;;;;;;;4.47;2.93;;;;;;;;;;5008993;28;20186;-77
2022/04/20 12:53:21;;;;;;;3.27;2.80;;;;;;;;;;5000190;28;20195;-78
2022/04/20 13:02:01;;;;;;;3.13;2.80;;;;;;;;;;5012885;28;20233;-77
2022/04/20 13:04:10;;;;;;;3.83;2.80;;;;;;;;;;5012423;28;20187;-78
2022/04/20 13:06:37;;;;;;;3.00;2.80;;;;;;;;;;5012804;28;20191;-78
2022/04/20 13:09:03;;;;;;;3.20;2.90;;;;;;;;;;5012830;28;20648;-78
2022/04/20 13:11:29;;;;;;;3.70;2.83;;;;;;;;;;5000740;28;20195;-78
2022/04/20 13:13:59;;;;;;;3.20;2.90;;;;;;;;;;5013499;28;20180;-78
2022/04/20 13:16:25;;;;;;;3.07;2.87;;;;;;;;;;5012978;28;20269;-78
2022/04/20 13:18:53;;;;;;;3.90;2.97;;;;;;;;;;4996769;28;20214;-78
2022/04/20 13:21:19;;;;;;;3.23;2.90;;;;;;;;;;5012864;28;20183;-79
2022/04/20 13:23:49;;;;;;;2.97;2.70;;;;;;;;;;4999438;28;20555;-78
2022/04/20 13:29:01;;;;;;;3.37;2.87;;;;;;;;;;5008042;28;20198;-78
2022/04/20 13:31:27;;;;;;;6.63;4.80;;;;;;;;;;5012440;28;20198;-78
2022/04/20 13:33:53;;;;;;;10.67;9.70;;;;;;;;;;5012030;28;20228;-78
2022/04/20 13:36:19;;;;;;;5.80;5.30;;;;;;;;;;5003689;28;20204;-78
2022/04/20 13:38:46;;;;;;;3.90;3.17;;;;;;;;;;5002102;28;20259;-78
2022/04/20 13:41:12;;;;;;;3.17;2.87;;;;;;;;;;5011937;28;20263;-78
2022/04/20 13:43:39;;;;;;;3.50;3.20;;;;;;;;;;5012836;28;20183;-79
2022/04/20 13:46:05;;;;;;;5.13;2.80;;;;;;;;;;5012381;28;20254;-78
2022/04/20 13:48:31;;;;;;;4.43;2.80;;;;;;;;;;5012188;28;20184;-78
2022/04/20 13:50:57;;;;;;;3.03;2.80;;;;;;;;;;5013278;28;20204;-78
2022/04/20 13:53:23;;;;;;;2.90;2.70;;;;;;;;;;5015485;28;20552;-79
2022/04/20 13:55:49;;;;;;;4.07;2.87;;;;;;;;;;5008215;28;20185;-78
2022/04/20 13:58:16;;;;;;;3.10;2.80;;;;;;;;;;5012671;28;20249;-78
2022/04/20 14:00:42;;;;;;;3.00;2.80;;;;;;;;;;5012574;28;20261;-78
2022/04/20 14:03:08;;;;;;;6.13;3.00;;;;;;;;;;5012745;28;20173;-78
2022/04/20 14:05:34;;;;;;;3.43;2.77;;;;;;;;;;5012388;28;20273;-78
2022/04/20 14:08:01;;;;;;;3.80;3.50;;;;;;;;;;5012235;28;20201;-78
2022/04/20 14:10:27;;;;;;;3.60;3.30;;;;;;;;;;5012376;28;20178;-79
2022/04/20 14:12:53;;;;;;;4.30;2.77;;;;;;;;;;5011436;28;20209;-78
2022/04/20 14:15:19;;;;;;;3.60;3.30;;;;;;;;;;5009959;28;20684;-79
2022/04/20 14:17:46;;;;;;;3.93;3.17;;;;;;;;;;5011375;28;20221;-78
2022/04/20 14:20:13;;;;;;;3.40;3.10;;;;;;;;;;5010607;28;20181;-78
2022/04/20 14:22:40;;;;;;;3.63;3.20;;;;;;;;;;5013943;28;20231;-78
2022/04/20 14:33:25;;;;;;;4.13;3.40;;;;;;;;;;5013691;28;20586;-81
2022/04/20 14:35:51;;;;;;;3.63;3.33;;;;;;;;;;5013918;28;20573;-81
2022/04/20 14:38:17;;;;;;;3.73;3.33;;;;;;;;;;4999433;28;20220;-82
2022/04/20 14:40:43;;;;;;;4.30;3.60;;;;;;;;;;5011420;28;20260;-81
2022/04/20 14:43:36;;;;;;;3.77;3.37;;;;;;;;;;5016828;28;20199;-81
2022/04/20 14:46:02;;;;;;;3.03;2.83;;;;;;;;;;5010560;28;20181;-81
2022/04/20 14:48:28;;;;;;;4.07;2.80;;;;;;;;;;5010486;28;20222;-81
2022/04/20 14:50:54;;;;;;;3.70;3.10;;;;;;;;;;5015142;28;20510;-81
2022/04/20 14:53:21;;;;;;;4.67;3.27;;;;;;;;;;5012677;28;20669;-81
2022/04/20 14:55:49;;;;;;;3.33;2.93;;;;;;;;;;4991071;28;20666;-81
2022/04/20 14:58:15;;;;;;;4.10;3.10;;;;;;;;;;5014623;28;20306;-81
2022/04/20 15:00:55;;;;;;;3.10;2.80;;;;;;;;;;4996222;28;20208;-80
2022/04/20 15:03:44;;;;;;;3.67;3.37;;;;;;;;;;5007304;28;20216;-81
2022/04/20 15:06:10;;;;;;;3.40;3.10;;;;;;;;;;5017182;28;20186;-80
2022/04/20 15:08:36;;;;;;;3.43;3.13;;;;;;;;;;5027482;28;20197;-80
2022/04/20 15:11:02;;;;;;;3.57;3.20;;;;;;;;;;5017210;28;20196;-80
2022/04/20 15:13:29;;;;;;;4.43;3.00;;;;;;;;;;5007471;28;20194;-81
2022/04/20 15:15:55;;;;;;;3.20;2.90;;;;;;;;;;5010057;28;20188;-80
2022/04/20 15:18:21;;;;;;;3.37;3.07;;;;;;;;;;5011713;28;20216;-81
2022/04/20 15:20:48;;;;;;;5.57;3.30;;;;;;;;;;5012056;28;20209;-83
2022/04/20 15:23:14;;;;;;;4.23;3.30;;;;;;;;;;4996807;28;20173;-84
2022/04/20 15:25:40;;;;;;;3.60;3.30;;;;;;;;;;5005908;28;20186;-79
2022/04/20 15:28:07;;;;;;;2.97;2.77;;;;;;;;;;5009478;28;20217;-79
2022/04/20 15:30:34;;;;;;;4.03;2.57;;;;;;;;;;5012405;28;20190;-80
2022/04/20 15:33:02;;;;;;;3.30;3.00;;;;;;;;;;5010340;28;20208;-80
2022/04/20 15:35:28;;;;;;;5.23;3.73;;;;;;;;;;5011980;28;20188;-80
2022/04/20 15:37:54;;;;;;;4.13;3.10;;;;;;;;;;5004484;28;20210;-81
2022/04/20 15:40:23;;;;;;;3.43;3.13;;;;;;;;;;5023125;28;20266;-81
2022/04/20 15:42:50;;;;;;;5.10;4.00;;;;;;;;;;5006318;28;20636;-82
2022/04/20 15:45:16;;;;;;;5.27;3.30;;;;;;;;;;5011828;28;20631;-82
2022/04/20 15:47:42;;;;;;;3.30;3.00;;;;;;;;;;5012146;28;20206;-82
2022/04/20 15:50:08;;;;;;;4.13;3.10;;;;;;;;;;5012776;28;20221;-81
2022/04/20 15:52:35;;;;;;;3.20;2.90;;;;;;;;;;5014578;28;20194;-81
2022/04/20 16:00:32;;;;;;;3.37;3.00;;;;;;;;;;5012783;28;20182;-81
2022/04/20 16:02:58;;;;;;;3.60;3.20;;;;;;;;;;5013919;28;20185;-81